createdAt,value
2017-09-06T00:00:43.381Z,86.70
2017-09-06T00:03:09.650Z,86.60
2017-09-06T00:05:35.891Z,87.00
2017-09-06T00:08:02.126Z,86.90
2017-09-06T00:10:28.382Z,86.80
2017-09-06T00:12:54.677Z,87.00
2017-09-06T00:15:20.906Z,87.10
2017-09-06T00:17:47.985Z,87.20
2017-09-06T00:20:14.219Z,87.20
2017-09-06T00:22:40.474Z,87.20
2017-09-06T00:25:06.726Z,87.20
2017-09-06T00:27:32.975Z,87.10
2017-09-06T00:29:59.210Z,87.20
2017-09-06T00:32:25.503Z,87.00
2017-09-06T00:34:51.743Z,87.10
2017-09-06T00:37:17.992Z,87.10
2017-09-06T00:39:44.235Z,87.00
2017-09-06T00:42:10.458Z,87.00
2017-09-06T00:44:36.685Z,87.10
2017-09-06T00:47:03.055Z,87.10
2017-09-06T00:49:29.289Z,87.00
2017-09-06T00:51:55.537Z,87.20
2017-09-06T00:54:21.874Z,87.30
2017-09-06T00:56:48.116Z,87.30
2017-09-06T00:59:14.346Z,87.30
2017-09-06T01:01:40.619Z,87.30
2017-09-06T01:04:06.847Z,87.30
2017-09-06T01:06:33.170Z,87.20
2017-09-06T01:08:59.446Z,87.20
2017-09-06T01:11:25.698Z,87.10
2017-09-06T01:13:51.938Z,87.00
2017-09-06T01:16:18.190Z,87.00
2017-09-06T01:18:44.426Z,87.10
2017-09-06T01:21:10.646Z,87.10
2017-09-06T01:23:36.894Z,86.90
2017-09-06T01:26:03.168Z,87.10
2017-09-06T01:28:29.414Z,87.10
2017-09-06T01:30:55.687Z,87.10
2017-09-06T01:33:21.906Z,87.00
2017-09-06T01:35:48.150Z,87.10
2017-09-06T01:38:15.375Z,87.10
2017-09-06T01:40:41.622Z,87.10
2017-09-06T01:43:07.854Z,87.20
2017-09-06T01:45:34.122Z,87.30
2017-09-06T01:48:00.362Z,87.30
2017-09-06T01:50:26.599Z,87.20
2017-09-06T01:52:52.851Z,87.30
2017-09-06T01:55:19.182Z,87.20
2017-09-06T01:57:45.432Z,87.30
2017-09-06T02:00:11.674Z,87.40
2017-09-06T02:02:37.893Z,87.40
2017-09-06T02:05:04.118Z,87.40
2017-09-06T02:07:30.367Z,87.30
2017-09-06T02:09:56.578Z,87.40
2017-09-06T02:12:22.798Z,87.30
2017-09-06T02:14:49.046Z,87.40
2017-09-06T02:17:15.261Z,87.40
2017-09-06T02:19:41.486Z,87.40
2017-09-06T02:22:07.738Z,87.40
2017-09-06T02:24:33.969Z,87.40
2017-09-06T02:27:00.196Z,87.40
2017-09-06T02:29:26.437Z,87.40
2017-09-06T02:31:52.664Z,87.50
2017-09-06T02:34:18.900Z,87.50
2017-09-06T02:36:45.138Z,87.50
2017-09-06T02:39:11.357Z,87.60
2017-09-06T02:41:38.136Z,87.60
2017-09-06T02:44:04.389Z,87.70
2017-09-06T02:46:30.618Z,87.70
2017-09-06T02:48:56.846Z,87.70
2017-09-06T02:51:23.118Z,87.80
2017-09-06T02:53:49.349Z,87.90
2017-09-06T02:56:17.285Z,88.00
2017-09-06T02:58:43.539Z,88.00
2017-09-06T03:01:09.757Z,88.10
2017-09-06T03:03:35.997Z,88.10
2017-09-06T03:06:02.746Z,88.20
2017-09-06T03:08:28.962Z,88.20
2017-09-06T03:10:55.182Z,88.40
2017-09-06T03:13:21.425Z,88.30
2017-09-06T03:15:47.638Z,88.30
2017-09-06T03:18:14.529Z,88.40
2017-09-06T03:20:40.792Z,88.30
2017-09-06T03:23:06.997Z,88.40
2017-09-06T03:25:33.323Z,88.50
2017-09-06T03:27:59.624Z,88.60
2017-09-06T03:30:25.901Z,88.60
2017-09-06T03:32:52.118Z,88.70
2017-09-06T03:35:18.365Z,88.70
2017-09-06T03:37:44.584Z,88.80
2017-09-06T03:40:10.806Z,88.90
2017-09-06T03:42:37.044Z,88.90
2017-09-06T03:45:03.333Z,88.90
2017-09-06T03:47:29.542Z,89.00
2017-09-06T03:49:55.862Z,89.00
2017-09-06T03:52:22.098Z,89.10
2017-09-06T03:54:48.359Z,89.20
2017-09-06T03:57:14.882Z,89.60
2017-09-06T03:59:41.102Z,89.60
2017-09-06T04:02:07.310Z,89.90
2017-09-06T04:04:33.582Z,89.60
2017-09-06T04:06:59.789Z,89.70
2017-09-06T04:09:26.014Z,89.70
2017-09-06T04:11:52.243Z,89.70
2017-09-06T04:14:18.464Z,89.80
2017-09-06T04:16:44.678Z,89.80
2017-09-06T04:19:10.907Z,89.80
2017-09-06T04:21:37.138Z,89.70
2017-09-06T04:24:03.510Z,89.60
2017-09-06T04:26:29.770Z,89.60
2017-09-06T04:28:55.997Z,89.50
2017-09-06T04:31:22.235Z,89.50
2017-09-06T04:33:48.473Z,89.50
2017-09-06T04:36:14.698Z,89.40
2017-09-06T04:38:40.927Z,89.40
2017-09-06T04:41:07.200Z,89.60
2017-09-06T04:43:33.429Z,89.80
2017-09-06T04:45:59.665Z,90.10
2017-09-06T04:48:25.914Z,90.30
2017-09-06T04:50:52.225Z,90.30
2017-09-06T04:53:18.968Z,90.30
2017-09-06T04:55:45.197Z,90.40
2017-09-06T04:58:11.523Z,90.30
2017-09-06T05:00:37.754Z,90.30
2017-09-06T05:03:03.974Z,90.40
2017-09-06T05:05:30.189Z,90.50
2017-09-06T05:07:56.402Z,90.50
2017-09-06T05:10:22.646Z,90.60
2017-09-06T05:12:48.877Z,90.70
2017-09-06T05:15:15.105Z,90.80
2017-09-06T05:17:41.351Z,90.70
2017-09-06T05:20:07.586Z,90.70
2017-09-06T05:22:33.836Z,91.00
2017-09-06T05:25:00.091Z,91.00
2017-09-06T05:27:26.297Z,91.10
2017-09-06T05:29:52.514Z,91.10
2017-09-06T05:32:18.745Z,91.10
2017-09-06T05:34:44.969Z,91.10
2017-09-06T05:37:11.178Z,91.30
2017-09-06T05:39:37.426Z,91.60
2017-09-06T05:42:03.682Z,91.40
2017-09-06T05:44:29.894Z,91.40
2017-09-06T05:46:56.121Z,91.50
2017-09-06T05:49:22.353Z,91.50
2017-09-06T05:51:48.613Z,91.60
2017-09-06T05:54:14.854Z,91.60
2017-09-06T05:56:41.066Z,91.60
2017-09-06T05:59:07.374Z,91.60
2017-09-06T06:01:33.701Z,91.60
2017-09-06T06:03:59.958Z,91.70
2017-09-06T06:06:26.173Z,91.70
2017-09-06T06:08:52.430Z,91.60
2017-09-06T06:11:18.678Z,91.50
2017-09-06T06:13:44.887Z,91.40
2017-09-06T06:16:11.114Z,91.30
2017-09-06T06:18:37.350Z,91.30
2017-09-06T06:21:03.579Z,91.20
2017-09-06T06:23:29.818Z,91.20
2017-09-06T06:25:56.046Z,91.30
2017-09-06T06:28:22.314Z,91.30
2017-09-06T06:30:48.570Z,91.30
2017-09-06T06:33:14.786Z,91.30
2017-09-06T06:35:41.006Z,91.20
2017-09-06T06:38:07.264Z,91.20
2017-09-06T06:40:33.486Z,91.10
2017-09-06T06:42:59.737Z,91.10
2017-09-06T06:45:26.032Z,91.00
2017-09-06T06:47:52.253Z,90.90
2017-09-06T06:50:18.486Z,90.90
2017-09-06T06:52:44.725Z,90.90
2017-09-06T06:55:10.937Z,90.80
2017-09-06T06:57:37.230Z,90.80
2017-09-06T07:00:03.579Z,90.80
2017-09-06T07:02:29.798Z,90.80
2017-09-06T07:04:56.062Z,90.80
2017-09-06T07:07:22.385Z,90.80
2017-09-06T07:09:48.601Z,91.00
2017-09-06T07:12:14.898Z,90.90
2017-09-06T07:14:41.174Z,91.00
2017-09-06T07:17:07.414Z,91.00
2017-09-06T07:19:33.630Z,91.00
2017-09-06T07:21:59.875Z,91.10
2017-09-06T07:24:26.942Z,91.10
2017-09-06T07:26:53.170Z,91.00
2017-09-06T07:29:19.391Z,91.00
2017-09-06T07:31:45.693Z,90.90
2017-09-06T07:34:11.921Z,91.00
2017-09-06T07:36:38.168Z,91.10
2017-09-06T07:39:04.398Z,91.20
2017-09-06T07:41:30.601Z,91.20
2017-09-06T07:43:56.860Z,91.10
2017-09-06T07:46:23.080Z,91.10
2017-09-06T07:48:49.321Z,91.20
2017-09-06T07:51:15.579Z,91.30
2017-09-06T07:53:41.806Z,91.50
2017-09-06T07:56:08.026Z,91.30
2017-09-06T07:58:34.303Z,91.00
2017-09-06T08:01:00.625Z,90.80
2017-09-06T08:03:26.870Z,90.70
2017-09-06T08:05:53.122Z,90.50
2017-09-06T08:08:19.354Z,90.50
2017-09-06T08:10:45.586Z,90.50
2017-09-06T08:13:11.837Z,90.60
2017-09-06T08:15:38.074Z,90.40
2017-09-06T08:18:04.326Z,90.20
2017-09-06T08:20:30.566Z,89.90
2017-09-06T08:22:56.794Z,89.50
2017-09-06T08:25:23.023Z,88.90
2017-09-06T08:27:49.282Z,88.90
2017-09-06T08:30:15.523Z,88.50
2017-09-06T08:32:41.758Z,88.50
2017-09-06T08:35:08.022Z,88.30
2017-09-06T08:37:34.255Z,88.90
2017-09-06T08:40:00.498Z,88.90
2017-09-06T08:42:26.733Z,88.40
2017-09-06T08:44:52.950Z,87.60
2017-09-06T08:47:19.206Z,87.90
2017-09-06T08:49:45.446Z,87.70
2017-09-06T08:52:11.694Z,87.10
2017-09-06T08:54:37.946Z,87.70
2017-09-06T08:57:04.193Z,87.30
2017-09-06T08:59:31.391Z,87.20
2017-09-06T09:01:57.941Z,87.70
2017-09-06T09:04:24.203Z,88.00
2017-09-06T09:06:50.427Z,86.60
2017-09-06T09:09:16.657Z,86.40
2017-09-06T09:11:42.912Z,87.10
2017-09-06T09:14:09.937Z,87.30
2017-09-06T09:16:36.153Z,87.40
2017-09-06T09:19:02.959Z,86.70
2017-09-06T09:21:29.202Z,86.20
2017-09-06T09:23:55.423Z,86.80
2017-09-06T09:26:21.657Z,86.30
2017-09-06T09:28:47.913Z,86.70
2017-09-06T09:31:14.199Z,85.90
2017-09-06T09:33:40.446Z,85.60
2017-09-06T09:36:06.670Z,85.20
2017-09-06T09:38:32.922Z,85.10
2017-09-06T09:40:59.498Z,85.00
2017-09-06T09:43:25.734Z,85.20
2017-09-06T09:45:51.965Z,85.40
2017-09-06T09:48:18.229Z,85.50
2017-09-06T09:50:44.458Z,84.90
2017-09-06T09:53:10.709Z,85.20
2017-09-06T09:55:36.933Z,85.10
2017-09-06T09:58:03.201Z,84.70
2017-09-06T10:00:29.435Z,85.10
2017-09-06T10:02:55.879Z,85.70
2017-09-06T10:05:22.886Z,86.20
2017-09-06T10:07:49.119Z,86.10
2017-09-06T10:10:15.362Z,85.60
2017-09-06T10:12:41.797Z,85.70
2017-09-06T10:15:08.015Z,85.90
2017-09-06T10:17:35.955Z,85.90
2017-09-06T10:20:02.259Z,86.20
2017-09-06T10:22:28.578Z,86.50
2017-09-06T10:24:54.872Z,86.20
2017-09-06T10:27:21.106Z,86.10
2017-09-06T10:29:47.331Z,85.90
2017-09-06T10:32:13.575Z,85.60
2017-09-06T10:34:39.811Z,87.20
2017-09-06T10:37:06.070Z,87.60
2017-09-06T10:39:32.404Z,87.90
2017-09-06T10:41:58.633Z,88.30
2017-09-06T10:44:24.861Z,89.00
2017-09-06T10:46:51.137Z,89.00
2017-09-06T10:49:17.374Z,88.90
2017-09-06T10:51:43.590Z,89.20
2017-09-06T10:54:09.858Z,89.50
2017-09-06T10:56:36.081Z,90.10
2017-09-06T10:59:02.991Z,90.70
2017-09-06T11:01:29.235Z,90.60
2017-09-06T11:03:56.570Z,90.40
2017-09-06T11:06:23.474Z,90.40
2017-09-06T11:08:49.697Z,90.40
2017-09-06T11:11:15.914Z,90.60
2017-09-06T11:13:42.455Z,90.50
2017-09-06T11:16:09.860Z,89.60
2017-09-06T11:18:36.119Z,89.60
2017-09-06T11:21:02.448Z,89.50
2017-09-06T11:23:28.815Z,88.80
2017-09-06T11:25:55.054Z,89.00
2017-09-06T11:28:21.291Z,89.10
2017-09-06T11:30:47.593Z,89.40
2017-09-06T11:33:13.828Z,89.30
2017-09-06T11:35:40.049Z,89.50
2017-09-06T11:38:07.021Z,89.90
2017-09-06T11:40:33.232Z,89.80
2017-09-06T11:42:59.459Z,90.00
2017-09-06T11:45:25.750Z,89.90
2017-09-06T11:47:52.106Z,90.00
2017-09-06T11:50:18.335Z,90.00
2017-09-06T11:52:44.572Z,90.30
2017-09-06T11:55:11.488Z,90.00
2017-09-06T11:57:37.755Z,90.20
2017-09-06T12:00:04.007Z,90.20
2017-09-06T12:02:30.233Z,90.40
2017-09-06T12:04:56.562Z,90.40
2017-09-06T12:07:22.842Z,90.60
2017-09-06T12:09:49.107Z,90.80
2017-09-06T12:12:15.938Z,90.90
2017-09-06T12:14:43.329Z,90.70
2017-09-06T12:17:09.582Z,90.70
2017-09-06T12:19:35.806Z,90.80
2017-09-06T12:22:02.054Z,90.70
2017-09-06T12:24:28.314Z,90.50
2017-09-06T12:26:54.548Z,90.60
2017-09-06T12:29:20.800Z,90.60
2017-09-06T12:31:47.045Z,90.50
2017-09-06T12:34:13.290Z,89.40
2017-09-06T12:36:39.569Z,87.40
2017-09-06T12:39:05.818Z,87.60
2017-09-06T12:41:32.079Z,87.60
2017-09-06T12:43:59.298Z,88.00
2017-09-06T12:46:25.538Z,88.40
2017-09-06T12:48:51.766Z,88.70
2017-09-06T12:51:18.061Z,87.60
2017-09-06T12:53:48.165Z,88.30
2017-09-06T12:56:14.430Z,88.50
2017-09-06T12:58:40.670Z,87.80
2017-09-06T13:01:06.967Z,87.30
2017-09-06T13:03:33.345Z,86.50
2017-09-06T13:05:59.718Z,86.20
2017-09-06T13:08:26.111Z,85.80
2017-09-06T13:10:52.382Z,84.90
2017-09-06T13:13:18.655Z,84.70
2017-09-06T13:15:44.904Z,84.10
2017-09-06T13:18:11.137Z,83.60
2017-09-06T13:20:37.414Z,84.20
2017-09-06T13:23:03.674Z,84.40
2017-09-06T13:25:29.903Z,84.10
2017-09-06T13:27:56.150Z,84.60
2017-09-06T13:30:22.383Z,85.00
2017-09-06T13:32:48.602Z,85.40
2017-09-06T13:35:14.858Z,85.40
2017-09-06T13:37:41.833Z,86.30
2017-09-06T13:40:08.076Z,86.20
2017-09-06T13:42:34.350Z,86.20
2017-09-06T13:45:00.582Z,84.40
2017-09-06T13:47:26.861Z,82.50
2017-09-06T13:49:53.209Z,82.70
2017-09-06T13:52:19.439Z,82.50
2017-09-06T13:54:45.703Z,82.70
2017-09-06T13:57:12.018Z,81.90
2017-09-06T13:59:38.247Z,82.60
2017-09-06T14:02:04.511Z,81.80
2017-09-06T14:04:30.886Z,81.90
2017-09-06T14:06:57.221Z,82.60
2017-09-06T14:09:23.486Z,83.80
2017-09-06T14:11:49.732Z,82.10
2017-09-06T14:14:16.824Z,82.60
2017-09-06T14:16:43.155Z,82.40
2017-09-06T14:19:09.414Z,82.00
2017-09-06T14:21:35.659Z,80.70
2017-09-06T14:24:01.914Z,81.40
2017-09-06T14:26:28.173Z,80.70
2017-09-06T14:28:55.175Z,80.00
2017-09-06T14:31:21.410Z,79.90
2017-09-06T14:33:47.650Z,78.90
2017-09-06T14:36:13.878Z,79.70
2017-09-06T14:38:40.103Z,78.70
2017-09-06T14:41:06.352Z,78.50
2017-09-06T14:43:33.610Z,77.90
2017-09-06T14:45:59.837Z,78.30
2017-09-06T14:48:26.085Z,78.50
2017-09-06T14:50:52.302Z,77.70
2017-09-06T14:53:18.574Z,77.70
2017-09-06T14:55:44.848Z,77.60
2017-09-06T14:58:11.117Z,77.10
2017-09-06T15:00:37.347Z,77.50
2017-09-06T15:03:03.645Z,77.20
2017-09-06T15:05:30.691Z,77.10
2017-09-06T15:07:57.182Z,77.20
2017-09-06T15:10:23.442Z,76.80
2017-09-06T15:12:49.719Z,76.60
2017-09-06T15:15:15.961Z,77.10
2017-09-06T15:17:42.224Z,76.80
2017-09-06T15:20:08.442Z,76.20
2017-09-06T15:22:34.670Z,76.30
2017-09-06T15:25:00.919Z,76.00
2017-09-06T15:27:28.190Z,76.60
2017-09-06T15:29:54.470Z,75.90
2017-09-06T15:32:20.738Z,76.00
2017-09-06T15:34:46.958Z,76.20
2017-09-06T15:37:13.193Z,76.10
2017-09-06T15:39:39.530Z,75.30
2017-09-06T15:42:05.742Z,75.80
2017-09-06T15:44:31.993Z,75.30
2017-09-06T15:46:58.229Z,75.70
2017-09-06T15:49:24.501Z,75.90
2017-09-06T15:51:50.827Z,76.70
2017-09-06T15:54:17.794Z,76.80
2017-09-06T15:56:44.273Z,76.40
2017-09-06T15:59:10.601Z,76.10
2017-09-06T16:01:36.839Z,76.10
2017-09-06T16:04:03.825Z,76.00
2017-09-06T16:06:30.062Z,76.30
2017-09-06T16:08:56.470Z,75.90
2017-09-06T16:11:22.710Z,76.60
2017-09-06T16:13:49.949Z,76.80
2017-09-06T16:16:16.239Z,76.40
2017-09-06T16:18:43.167Z,76.50
2017-09-06T16:21:09.414Z,76.80
2017-09-06T16:23:35.663Z,76.40
2017-09-06T16:26:01.894Z,76.70
2017-09-06T16:28:28.158Z,76.80
2017-09-06T16:30:54.404Z,77.10
2017-09-06T16:33:21.574Z,77.40
2017-09-06T16:35:47.886Z,77.60
2017-09-06T16:38:14.199Z,77.70
2017-09-06T16:40:40.441Z,78.20
2017-09-06T16:43:06.734Z,78.10
2017-09-06T16:45:33.295Z,78.10
2017-09-06T16:48:00.535Z,78.40
2017-09-06T16:50:26.819Z,78.30
2017-09-06T16:52:53.109Z,77.90
2017-09-06T16:55:19.383Z,78.00
2017-09-06T16:57:45.692Z,78.00
2017-09-06T17:00:12.014Z,77.90
2017-09-06T17:02:38.419Z,77.80
2017-09-06T17:05:04.658Z,77.60
2017-09-06T17:07:30.918Z,77.80
2017-09-06T17:09:57.357Z,77.80
2017-09-06T17:12:23.575Z,77.50
2017-09-06T17:14:49.824Z,77.50
2017-09-06T17:17:16.226Z,77.50
2017-09-06T17:19:42.467Z,77.80
2017-09-06T17:22:08.758Z,78.20
2017-09-06T17:24:35.045Z,77.60
2017-09-06T17:27:01.430Z,77.90
2017-09-06T17:29:27.743Z,77.80
2017-09-06T17:31:53.977Z,77.90
2017-09-06T17:34:20.216Z,78.00
2017-09-06T17:36:46.486Z,78.30
2017-09-06T17:39:12.746Z,78.30
2017-09-06T17:41:38.971Z,78.30
2017-09-06T17:44:05.243Z,78.20
2017-09-06T17:46:31.475Z,78.30
2017-09-06T17:48:57.740Z,78.40
2017-09-06T17:51:24.006Z,78.00
2017-09-06T17:53:50.261Z,78.40
2017-09-06T17:56:16.565Z,78.10
2017-09-06T17:58:42.834Z,78.30
2017-09-06T18:01:09.061Z,78.00
2017-09-06T18:03:36.274Z,78.20
2017-09-06T18:06:02.663Z,79.30
2017-09-06T18:08:28.946Z,78.60
2017-09-06T18:10:56.075Z,78.70
2017-09-06T18:13:22.359Z,78.70
2017-09-06T18:15:48.582Z,78.40
2017-09-06T18:18:14.826Z,78.20
2017-09-06T18:20:41.085Z,78.10
2017-09-06T18:23:07.368Z,77.90
2017-09-06T18:25:33.972Z,78.30
2017-09-06T18:28:00.412Z,78.30
2017-09-06T18:30:26.730Z,78.20
2017-09-06T18:32:53.001Z,77.90
2017-09-06T18:35:19.282Z,78.20
2017-09-06T18:37:45.642Z,78.10
2017-09-06T18:40:11.887Z,77.70
2017-09-06T18:42:38.171Z,77.80
2017-09-06T18:45:04.450Z,77.90
2017-09-06T18:47:30.770Z,77.40
2017-09-06T18:49:57.029Z,77.10
2017-09-06T18:52:23.336Z,77.10
2017-09-06T18:54:49.627Z,77.30
2017-09-06T18:57:15.921Z,76.20
2017-09-06T18:59:42.228Z,76.50
2017-09-06T19:02:08.566Z,75.90
2017-09-06T19:04:34.842Z,76.20
2017-09-06T19:07:01.114Z,75.40
2017-09-06T19:09:27.507Z,75.40
2017-09-06T19:11:53.956Z,75.00
2017-09-06T19:14:20.261Z,75.10
2017-09-06T19:16:46.592Z,74.80
2017-09-06T19:19:12.874Z,75.00
2017-09-06T19:21:39.125Z,74.30
2017-09-06T19:24:06.335Z,74.60
2017-09-06T19:26:33.229Z,74.30
2017-09-06T19:28:59.508Z,74.70
2017-09-06T19:31:25.751Z,74.30
2017-09-06T19:33:52.024Z,74.30
2017-09-06T19:36:18.311Z,74.30
2017-09-06T19:38:44.583Z,74.50
2017-09-06T19:41:11.025Z,74.30
2017-09-06T19:43:37.408Z,74.70
2017-09-06T19:46:04.397Z,73.80
2017-09-06T19:48:30.744Z,73.40
2017-09-06T19:50:57.134Z,74.10
2017-09-06T19:53:23.884Z,73.90
2017-09-06T19:55:50.278Z,73.90
2017-09-06T19:58:16.519Z,73.40
2017-09-06T20:00:43.049Z,73.20
2017-09-06T20:03:09.324Z,73.30
2017-09-06T20:05:35.555Z,73.30
2017-09-06T20:08:01.823Z,73.30
2017-09-06T20:10:28.070Z,72.70
2017-09-06T20:12:54.757Z,72.40
2017-09-06T20:15:21.017Z,73.00
2017-09-06T20:17:47.250Z,73.40
2017-09-06T20:20:13.469Z,73.50
2017-09-06T20:22:39.718Z,72.90
2017-09-06T20:25:05.998Z,72.40
2017-09-06T20:27:32.263Z,71.80
2017-09-06T20:29:58.565Z,72.30
2017-09-06T20:32:24.847Z,71.90
2017-09-06T20:34:51.158Z,72.20
2017-09-06T20:37:17.399Z,72.20
2017-09-06T20:39:43.654Z,72.50
2017-09-06T20:42:09.910Z,72.40
2017-09-06T20:44:36.150Z,72.70
2017-09-06T20:47:02.462Z,72.10
2017-09-06T20:49:28.747Z,72.50
2017-09-06T20:51:55.002Z,71.70
2017-09-06T20:54:21.339Z,71.70
2017-09-06T20:56:47.602Z,71.90
2017-09-06T20:59:13.858Z,72.00
2017-09-06T21:01:40.126Z,72.10
2017-09-06T21:04:06.354Z,71.90
2017-09-06T21:06:32.615Z,72.20
2017-09-06T21:08:58.982Z,72.00
2017-09-06T21:11:25.218Z,72.10
2017-09-06T21:13:51.521Z,72.20
2017-09-06T21:16:17.782Z,71.70
2017-09-06T21:18:44.142Z,71.80
2017-09-06T21:21:10.394Z,71.70
2017-09-06T21:23:36.649Z,72.10
2017-09-06T21:26:03.079Z,72.10
2017-09-06T21:28:29.317Z,72.10
2017-09-06T21:30:55.594Z,72.20
2017-09-06T21:33:21.837Z,72.10
2017-09-06T21:35:48.069Z,72.20
2017-09-06T21:38:14.322Z,72.20
2017-09-06T21:40:40.554Z,72.00
2017-09-06T21:43:06.772Z,72.10
2017-09-06T21:45:33.106Z,72.30
2017-09-06T21:47:59.369Z,72.50
2017-09-06T21:50:25.610Z,72.90
2017-09-06T21:52:51.867Z,72.30
2017-09-06T21:55:18.100Z,72.30
2017-09-06T21:57:44.328Z,72.80
2017-09-06T22:00:10.578Z,73.10
2017-09-06T22:02:36.807Z,73.10
2017-09-06T22:05:03.107Z,73.20
2017-09-06T22:07:29.373Z,73.40
2017-09-06T22:09:55.592Z,73.40
2017-09-06T22:12:21.815Z,73.30
2017-09-06T22:14:48.158Z,73.50
2017-09-06T22:17:14.386Z,73.50
2017-09-06T22:19:40.614Z,73.50
2017-09-06T22:22:06.850Z,73.70
2017-09-06T22:24:33.226Z,73.50
2017-09-06T22:26:59.500Z,73.60
2017-09-06T22:29:25.754Z,73.60
2017-09-06T22:31:51.990Z,73.60
2017-09-06T22:34:18.238Z,73.30
2017-09-06T22:36:44.497Z,73.00
2017-09-06T22:39:10.740Z,73.10
2017-09-06T22:41:36.971Z,72.70
2017-09-06T22:44:03.293Z,72.90
2017-09-06T22:46:29.502Z,72.40
2017-09-06T22:48:55.733Z,72.30
2017-09-06T22:51:21.983Z,72.40
2017-09-06T22:53:48.203Z,72.20
2017-09-06T22:56:14.419Z,72.00
2017-09-06T22:58:40.660Z,72.20
2017-09-06T23:01:06.889Z,72.00
2017-09-06T23:03:33.182Z,71.90
2017-09-06T23:05:59.426Z,72.20
2017-09-06T23:08:25.654Z,72.50
2017-09-06T23:10:51.885Z,72.50
2017-09-06T23:13:18.142Z,72.70
2017-09-06T23:15:44.626Z,72.70
2017-09-06T23:18:10.874Z,72.50
2017-09-06T23:20:37.147Z,73.10
2017-09-06T23:23:03.412Z,72.90
2017-09-06T23:25:29.650Z,73.30
2017-09-06T23:27:55.947Z,73.30
2017-09-06T23:30:22.194Z,73.00
2017-09-06T23:32:48.426Z,73.10
2017-09-06T23:35:14.675Z,73.10
2017-09-06T23:37:40.901Z,73.20
2017-09-06T23:40:07.144Z,73.00
2017-09-06T23:42:33.510Z,73.90
2017-09-06T23:44:59.730Z,73.60
2017-09-06T23:47:25.955Z,73.70
2017-09-06T23:49:52.195Z,73.60
2017-09-06T23:52:18.408Z,73.60
2017-09-06T23:54:44.643Z,73.50
2017-09-06T23:57:10.894Z,73.70
2017-09-06T23:59:37.118Z,73.90
